sensor_id;sensor_type;location;lat;lon;timestamp;temperature;humidity
32640;DHT22;19049;52.524;11.468;2022-07-25T00:02:20;21.00;48.80
32640;DHT22;19049;52.524;11.468;2022-07-25T00:04:45;21.00;48.80
32640;DHT22;19049;52.524;11.468;2022-07-25T00:07:14;20.90;48.80
32640;DHT22;19049;52.524;11.468;2022-07-25T00:09:39;20.90;49.20
32640;DHT22;19049;52.524;11.468;2022-07-25T00:12:05;20.90;49.10
32640;DHT22;19049;52.524;11.468;2022-07-25T00:14:31;20.90;49.10
32640;DHT22;19049;52.524;11.468;2022-07-25T00:16:57;20.90;49.30
32640;DHT22;19049;52.524;11.468;2022-07-25T00:19:23;20.90;49.10
32640;DHT22;19049;52.524;11.468;2022-07-25T00:21:48;20.90;49.40
32640;DHT22;19049;52.524;11.468;2022-07-25T00:24:14;20.90;49.30
32640;DHT22;19049;52.524;11.468;2022-07-25T00:26:40;20.80;49.50
32640;DHT22;19049;52.524;11.468;2022-07-25T00:29:08;20.80;49.30
32640;DHT22;19049;52.524;11.468;2022-07-25T00:31:36;20.80;49.60
32640;DHT22;19049;52.524;11.468;2022-07-25T00:34:04;20.80;49.50
32640;DHT22;19049;52.524;11.468;2022-07-25T00:36:29;20.80;49.80
32640;DHT22;19049;52.524;11.468;2022-07-25T00:38:55;20.70;49.80
32640;DHT22;19049;52.524;11.468;2022-07-25T00:41:21;20.70;49.90
32640;DHT22;19049;52.524;11.468;2022-07-25T00:43:46;20.70;49.80
32640;DHT22;19049;52.524;11.468;2022-07-25T00:46:13;20.70;49.70
32640;DHT22;19049;52.524;11.468;2022-07-25T00:48:39;20.70;49.80
32640;DHT22;19049;52.524;11.468;2022-07-25T00:51:05;20.60;49.80
32640;DHT22;19049;52.524;11.468;2022-07-25T00:53:31;20.60;50.10
32640;DHT22;19049;52.524;11.468;2022-07-25T00:55:57;20.60;50.20
32640;DHT22;19049;52.524;11.468;2022-07-25T00:58:22;20.60;50.10
32640;DHT22;19049;52.524;11.468;2022-07-25T01:00:48;20.60;50.00
32640;DHT22;19049;52.524;11.468;2022-07-25T01:03:14;20.60;50.10
32640;DHT22;19049;52.524;11.468;2022-07-25T01:05:41;20.60;50.00
32640;DHT22;19049;52.524;11.468;2022-07-25T01:08:07;20.50;49.90
32640;DHT22;19049;52.524;11.468;2022-07-25T01:10:33;20.50;50.00
32640;DHT22;19049;52.524;11.468;2022-07-25T01:13:02;20.50;50.20
32640;DHT22;19049;52.524;11.468;2022-07-25T01:15:27;20.50;50.30
32640;DHT22;19049;52.524;11.468;2022-07-25T01:17:53;20.50;50.20
32640;DHT22;19049;52.524;11.468;2022-07-25T01:20:23;20.40;50.30
32640;DHT22;19049;52.524;11.468;2022-07-25T01:22:50;20.40;50.30
32640;DHT22;19049;52.524;11.468;2022-07-25T01:25:16;20.50;50.30
32640;DHT22;19049;52.524;11.468;2022-07-25T01:27:45;20.40;50.30
32640;DHT22;19049;52.524;11.468;2022-07-25T01:30:13;20.40;50.30
32640;DHT22;19049;52.524;11.468;2022-07-25T01:32:40;20.40;51.00
32640;DHT22;19049;52.524;11.468;2022-07-25T01:35:07;20.30;51.40
32640;DHT22;19049;52.524;11.468;2022-07-25T01:37:36;20.30;50.70
32640;DHT22;19049;52.524;11.468;2022-07-25T01:40:02;20.30;50.80
32640;DHT22;19049;52.524;11.468;2022-07-25T01:42:28;20.20;50.70
32640;DHT22;19049;52.524;11.468;2022-07-25T01:44:54;20.20;50.80
32640;DHT22;19049;52.524;11.468;2022-07-25T01:47:22;20.10;50.90
32640;DHT22;19049;52.524;11.468;2022-07-25T01:49:48;20.10;50.90
32640;DHT22;19049;52.524;11.468;2022-07-25T01:52:14;20.00;51.10
32640;DHT22;19049;52.524;11.468;2022-07-25T01:54:40;20.00;51.30
32640;DHT22;19049;52.524;11.468;2022-07-25T01:57:06;20.00;51.30
32640;DHT22;19049;52.524;11.468;2022-07-25T01:59:36;20.00;51.30
32640;DHT22;19049;52.524;11.468;2022-07-25T02:02:04;20.00;51.50
32640;DHT22;19049;52.524;11.468;2022-07-25T02:04:32;20.00;51.50
32640;DHT22;19049;52.524;11.468;2022-07-25T02:07:00;20.00;51.70
32640;DHT22;19049;52.524;11.468;2022-07-25T02:09:26;20.00;51.50
32640;DHT22;19049;52.524;11.468;2022-07-25T02:11:52;20.00;51.70
32640;DHT22;19049;52.524;11.468;2022-07-25T02:14:17;20.00;51.80
32640;DHT22;19049;52.524;11.468;2022-07-25T02:16:50;20.00;51.50
32640;DHT22;19049;52.524;11.468;2022-07-25T02:19:16;20.00;51.80
32640;DHT22;19049;52.524;11.468;2022-07-25T02:21:42;20.00;51.40
32640;DHT22;19049;52.524;11.468;2022-07-25T02:24:12;20.00;51.50
32640;DHT22;19049;52.524;11.468;2022-07-25T02:26:38;20.10;51.60
32640;DHT22;19049;52.524;11.468;2022-07-25T02:29:03;20.10;51.40
32640;DHT22;19049;52.524;11.468;2022-07-25T02:31:29;20.10;51.80
32640;DHT22;19049;52.524;11.468;2022-07-25T02:33:57;20.10;51.50
32640;DHT22;19049;52.524;11.468;2022-07-25T02:36:25;20.10;51.40
32640;DHT22;19049;52.524;11.468;2022-07-25T02:38:50;20.10;51.30
32640;DHT22;19049;52.524;11.468;2022-07-25T02:41:16;20.10;51.40
32640;DHT22;19049;52.524;11.468;2022-07-25T02:43:44;20.10;51.40
32640;DHT22;19049;52.524;11.468;2022-07-25T02:46:17;20.10;52.10
32640;DHT22;19049;52.524;11.468;2022-07-25T02:48:42;20.10;51.20
32640;DHT22;19049;52.524;11.468;2022-07-25T02:51:10;20.10;51.30
32640;DHT22;19049;52.524;11.468;2022-07-25T02:53:36;20.00;51.90
32640;DHT22;19049;52.524;11.468;2022-07-25T02:56:01;20.00;51.30
32640;DHT22;19049;52.524;11.468;2022-07-25T02:58:30;20.00;51.40
32640;DHT22;19049;52.524;11.468;2022-07-25T03:00:55;20.00;51.50
32640;DHT22;19049;52.524;11.468;2022-07-25T03:03:23;20.00;51.40
32640;DHT22;19049;52.524;11.468;2022-07-25T03:05:49;20.00;51.40
32640;DHT22;19049;52.524;11.468;2022-07-25T03:08:17;20.00;51.40
32640;DHT22;19049;52.524;11.468;2022-07-25T03:10:43;19.90;51.70
32640;DHT22;19049;52.524;11.468;2022-07-25T03:13:08;19.90;51.40
32640;DHT22;19049;52.524;11.468;2022-07-25T03:15:34;19.90;51.40
32640;DHT22;19049;52.524;11.468;2022-07-25T03:17:59;19.90;51.70
32640;DHT22;19049;52.524;11.468;2022-07-25T03:20:27;19.90;51.60
32640;DHT22;19049;52.524;11.468;2022-07-25T03:22:53;19.90;52.80
32640;DHT22;19049;52.524;11.468;2022-07-25T03:25:18;19.90;51.90
32640;DHT22;19049;52.524;11.468;2022-07-25T03:27:44;19.80;51.70
32640;DHT22;19049;52.524;11.468;2022-07-25T03:30:12;19.80;51.90
32640;DHT22;19049;52.524;11.468;2022-07-25T03:32:38;19.80;52.10
32640;DHT22;19049;52.524;11.468;2022-07-25T03:35:04;19.80;52.20
32640;DHT22;19049;52.524;11.468;2022-07-25T03:37:30;19.80;52.10
32640;DHT22;19049;52.524;11.468;2022-07-25T03:39:56;19.90;52.30
32640;DHT22;19049;52.524;11.468;2022-07-25T03:42:29;19.90;52.20
32640;DHT22;19049;52.524;11.468;2022-07-25T03:44:57;19.90;52.80
32640;DHT22;19049;52.524;11.468;2022-07-25T03:47:27;19.90;52.30
32640;DHT22;19049;52.524;11.468;2022-07-25T03:49:53;19.90;52.40
32640;DHT22;19049;52.524;11.468;2022-07-25T03:52:19;19.90;52.40
32640;DHT22;19049;52.524;11.468;2022-07-25T03:54:45;20.00;52.30
32640;DHT22;19049;52.524;11.468;2022-07-25T03:57:10;20.00;53.10
32640;DHT22;19049;52.524;11.468;2022-07-25T03:59:37;20.00;52.60
32640;DHT22;19049;52.524;11.468;2022-07-25T04:02:03;20.00;52.40
32640;DHT22;19049;52.524;11.468;2022-07-25T04:04:31;20.10;52.30
32640;DHT22;19049;52.524;11.468;2022-07-25T04:06:57;20.10;52.70
32640;DHT22;19049;52.524;11.468;2022-07-25T04:09:22;20.10;52.50
32640;DHT22;19049;52.524;11.468;2022-07-25T04:11:55;20.20;52.60
32640;DHT22;19049;52.524;11.468;2022-07-25T04:14:26;20.20;52.50
32640;DHT22;19049;52.524;11.468;2022-07-25T04:16:52;20.30;52.60
32640;DHT22;19049;52.524;11.468;2022-07-25T04:19:17;20.40;52.70
32640;DHT22;19049;52.524;11.468;2022-07-25T04:21:43;20.50;52.90
32640;DHT22;19049;52.524;11.468;2022-07-25T04:24:09;20.70;53.30
32640;DHT22;19049;52.524;11.468;2022-07-25T04:26:34;20.90;53.40
32640;DHT22;19049;52.524;11.468;2022-07-25T04:29:00;21.10;53.10
32640;DHT22;19049;52.524;11.468;2022-07-25T04:31:33;21.30;53.10
32640;DHT22;19049;52.524;11.468;2022-07-25T04:34:10;21.60;52.80
32640;DHT22;19049;52.524;11.468;2022-07-25T04:36:38;21.90;52.70
32640;DHT22;19049;52.524;11.468;2022-07-25T04:39:06;22.10;52.50
32640;DHT22;19049;52.524;11.468;2022-07-25T04:41:32;22.40;52.10
32640;DHT22;19049;52.524;11.468;2022-07-25T04:43:57;22.60;52.30
32640;DHT22;19049;52.524;11.468;2022-07-25T04:46:23;22.90;51.60
32640;DHT22;19049;52.524;11.468;2022-07-25T04:48:53;23.10;51.20
32640;DHT22;19049;52.524;11.468;2022-07-25T04:51:29;23.40;50.90
32640;DHT22;19049;52.524;11.468;2022-07-25T04:53:54;23.60;50.30
32640;DHT22;19049;52.524;11.468;2022-07-25T04:56:20;23.80;50.10
32640;DHT22;19049;52.524;11.468;2022-07-25T04:58:46;24.00;49.90
32640;DHT22;19049;52.524;11.468;2022-07-25T05:01:11;24.20;49.60
32640;DHT22;19049;52.524;11.468;2022-07-25T05:03:37;24.40;49.30
32640;DHT22;19049;52.524;11.468;2022-07-25T05:06:03;24.50;49.20
32640;DHT22;19049;52.524;11.468;2022-07-25T05:08:30;24.70;49.00
32640;DHT22;19049;52.524;11.468;2022-07-25T05:11:06;24.80;48.40
32640;DHT22;19049;52.524;11.468;2022-07-25T05:13:34;25.00;48.50
32640;DHT22;19049;52.524;11.468;2022-07-25T05:16:12;25.10;48.20
32640;DHT22;19049;52.524;11.468;2022-07-25T05:18:38;25.30;48.00
32640;DHT22;19049;52.524;11.468;2022-07-25T05:21:11;25.40;47.90
32640;DHT22;19049;52.524;11.468;2022-07-25T05:23:37;25.60;47.90
32640;DHT22;19049;52.524;11.468;2022-07-25T05:26:12;25.80;47.60
32640;DHT22;19049;52.524;11.468;2022-07-25T05:29:14;25.90;47.50
32640;DHT22;19049;52.524;11.468;2022-07-25T05:32:00;26.10;47.10
32640;DHT22;19049;52.524;11.468;2022-07-25T05:34:27;26.30;47.20
32640;DHT22;19049;52.524;11.468;2022-07-25T05:37:04;26.50;46.80
32640;DHT22;19049;52.524;11.468;2022-07-25T05:39:35;26.70;46.00
32640;DHT22;19049;52.524;11.468;2022-07-25T05:42:07;26.90;45.70
32640;DHT22;19049;52.524;11.468;2022-07-25T05:44:33;27.00;45.70
32640;DHT22;19049;52.524;11.468;2022-07-25T05:46:58;27.20;45.80
32640;DHT22;19049;52.524;11.468;2022-07-25T05:49:49;27.40;45.70
32640;DHT22;19049;52.524;11.468;2022-07-25T05:52:23;27.60;45.40
32640;DHT22;19049;52.524;11.468;2022-07-25T05:54:50;27.80;45.20
32640;DHT22;19049;52.524;11.468;2022-07-25T05:57:16;28.00;45.00
32640;DHT22;19049;52.524;11.468;2022-07-25T05:59:42;28.20;44.60
32640;DHT22;19049;52.524;11.468;2022-07-25T06:02:07;28.30;44.10
32640;DHT22;19049;52.524;11.468;2022-07-25T06:04:35;28.40;43.70
32640;DHT22;19049;52.524;11.468;2022-07-25T06:07:01;28.60;44.40
32640;DHT22;19049;52.524;11.468;2022-07-25T06:09:27;28.70;43.70
32640;DHT22;19049;52.524;11.468;2022-07-25T06:12:02;28.80;42.90
32640;DHT22;19049;52.524;11.468;2022-07-25T06:14:30;29.00;43.70
32640;DHT22;19049;52.524;11.468;2022-07-25T06:16:56;29.20;43.40
32640;DHT22;19049;52.524;11.468;2022-07-25T06:19:32;29.30;43.20
32640;DHT22;19049;52.524;11.468;2022-07-25T06:22:02;29.60;42.80
32640;DHT22;19049;52.524;11.468;2022-07-25T06:25:14;29.70;42.20
32640;DHT22;19049;52.524;11.468;2022-07-25T06:33:09;30.30;42.00
32640;DHT22;19049;52.524;11.468;2022-07-25T06:35:44;30.50;42.00
32640;DHT22;19049;52.524;11.468;2022-07-25T06:38:12;30.70;40.90
32640;DHT22;19049;52.524;11.468;2022-07-25T06:41:00;30.80;41.40
32640;DHT22;19049;52.524;11.468;2022-07-25T06:43:29;31.00;40.80
32640;DHT22;19049;52.524;11.468;2022-07-25T06:46:59;31.20;40.90
32640;DHT22;19049;52.524;11.468;2022-07-25T06:49:24;31.40;39.40
32640;DHT22;19049;52.524;11.468;2022-07-25T06:52:00;31.50;39.80
32640;DHT22;19049;52.524;11.468;2022-07-25T06:58:06;31.90;39.30
32640;DHT22;19049;52.524;11.468;2022-07-25T07:00:32;32.10;39.60
32640;DHT22;19049;52.524;11.468;2022-07-25T07:02:59;32.20;38.60
32640;DHT22;19049;52.524;11.468;2022-07-25T07:05:33;32.30;37.90
32640;DHT22;19049;52.524;11.468;2022-07-25T07:08:05;32.40;37.80
32640;DHT22;19049;52.524;11.468;2022-07-25T07:10:38;32.50;37.70
32640;DHT22;19049;52.524;11.468;2022-07-25T07:13:12;32.70;37.60
32640;DHT22;19049;52.524;11.468;2022-07-25T07:15:48;32.80;36.30
32640;DHT22;19049;52.524;11.468;2022-07-25T07:18:15;32.90;35.90
32640;DHT22;19049;52.524;11.468;2022-07-25T07:20:48;33.00;36.40
32640;DHT22;19049;52.524;11.468;2022-07-25T07:23:16;33.20;36.80
32640;DHT22;19049;52.524;11.468;2022-07-25T07:25:42;33.30;36.90
32640;DHT22;19049;52.524;11.468;2022-07-25T07:28:12;33.50;36.50
32640;DHT22;19049;52.524;11.468;2022-07-25T07:30:47;33.70;36.40
32640;DHT22;19049;52.524;11.468;2022-07-25T07:33:15;33.90;36.70
32640;DHT22;19049;52.524;11.468;2022-07-25T07:35:51;34.20;36.80
32640;DHT22;19049;52.524;11.468;2022-07-25T07:38:17;34.50;35.90
32640;DHT22;19049;52.524;11.468;2022-07-25T07:40:50;34.80;34.70
32640;DHT22;19049;52.524;11.468;2022-07-25T07:43:33;35.00;34.60
32640;DHT22;19049;52.524;11.468;2022-07-25T07:46:08;35.20;34.40
32640;DHT22;19049;52.524;11.468;2022-07-25T07:48:57;35.30;34.00
32640;DHT22;19049;52.524;11.468;2022-07-25T07:54:44;35.80;33.70
32640;DHT22;19049;52.524;11.468;2022-07-25T07:57:48;35.90;33.60
32640;DHT22;19049;52.524;11.468;2022-07-25T08:00:44;36.20;32.40
32640;DHT22;19049;52.524;11.468;2022-07-25T08:03:33;36.30;32.70
32640;DHT22;19049;52.524;11.468;2022-07-25T08:10:11;36.50;30.20
32640;DHT22;19049;52.524;11.468;2022-07-25T08:13:14;36.60;31.90
32640;DHT22;19049;52.524;11.468;2022-07-25T08:16:27;36.80;31.10
32640;DHT22;19049;52.524;11.468;2022-07-25T08:19:10;36.90;31.70
32640;DHT22;19049;52.524;11.468;2022-07-25T08:21:43;37.10;31.20
32640;DHT22;19049;52.524;11.468;2022-07-25T08:24:09;37.30;31.10
32640;DHT22;19049;52.524;11.468;2022-07-25T08:26:37;37.20;29.90
32640;DHT22;19049;52.524;11.468;2022-07-25T08:29:06;37.50;30.00
32640;DHT22;19049;52.524;11.468;2022-07-25T08:31:31;37.60;30.30
32640;DHT22;19049;52.524;11.468;2022-07-25T08:33:57;37.60;29.50
32640;DHT22;19049;52.524;11.468;2022-07-25T08:36:25;37.60;30.30
32640;DHT22;19049;52.524;11.468;2022-07-25T08:39:05;37.60;30.10
32640;DHT22;19049;52.524;11.468;2022-07-25T08:41:34;37.70;29.60
32640;DHT22;19049;52.524;11.468;2022-07-25T08:44:06;37.70;30.00
32640;DHT22;19049;52.524;11.468;2022-07-25T08:46:45;37.80;29.70
32640;DHT22;19049;52.524;11.468;2022-07-25T08:49:13;37.80;30.00
32640;DHT22;19049;52.524;11.468;2022-07-25T08:51:47;37.80;30.00
32640;DHT22;19049;52.524;11.468;2022-07-25T08:54:19;38.00;29.60
32640;DHT22;19049;52.524;11.468;2022-07-25T08:56:55;38.00;29.10
32640;DHT22;19049;52.524;11.468;2022-07-25T08:59:40;38.00;29.20
32640;DHT22;19049;52.524;11.468;2022-07-25T09:02:39;38.20;28.70
32640;DHT22;19049;52.524;11.468;2022-07-25T09:05:35;38.30;29.30
32640;DHT22;19049;52.524;11.468;2022-07-25T09:08:25;38.30;28.80
32640;DHT22;19049;52.524;11.468;2022-07-25T09:10:53;38.20;28.60
32640;DHT22;19049;52.524;11.468;2022-07-25T09:13:20;38.20;28.70
32640;DHT22;19049;52.524;11.468;2022-07-25T09:15:50;38.20;29.00
32640;DHT22;19049;52.524;11.468;2022-07-25T09:18:21;38.20;28.50
32640;DHT22;19049;52.524;11.468;2022-07-25T09:20:49;38.20;28.90
32640;DHT22;19049;52.524;11.468;2022-07-25T09:26:16;38.10;28.80
32640;DHT22;19049;52.524;11.468;2022-07-25T09:28:44;38.00;28.60
32640;DHT22;19049;52.524;11.468;2022-07-25T09:31:14;37.90;28.90
32640;DHT22;19049;52.524;11.468;2022-07-25T09:33:49;37.90;29.50
32640;DHT22;19049;52.524;11.468;2022-07-25T09:36:19;38.00;29.00
32640;DHT22;19049;52.524;11.468;2022-07-25T09:38:56;38.10;29.20
32640;DHT22;19049;52.524;11.468;2022-07-25T09:41:37;38.20;29.20
32640;DHT22;19049;52.524;11.468;2022-07-25T09:44:17;38.30;28.70
32640;DHT22;19049;52.524;11.468;2022-07-25T09:46:50;38.40;28.90
32640;DHT22;19049;52.524;11.468;2022-07-25T09:49:23;38.50;27.90
32640;DHT22;19049;52.524;11.468;2022-07-25T09:51:54;38.50;28.60
32640;DHT22;19049;52.524;11.468;2022-07-25T09:55:13;38.60;28.60
32640;DHT22;19049;52.524;11.468;2022-07-25T09:57:21;38.70;28.70
32640;DHT22;19049;52.524;11.468;2022-07-25T09:59:50;38.70;28.00
32640;DHT22;19049;52.524;11.468;2022-07-25T10:02:47;38.80;28.30
32640;DHT22;19049;52.524;11.468;2022-07-25T10:05:29;38.80;27.40
32640;DHT22;19049;52.524;11.468;2022-07-25T10:07:58;38.70;28.20
32640;DHT22;19049;52.524;11.468;2022-07-25T10:10:35;38.80;28.40
32640;DHT22;19049;52.524;11.468;2022-07-25T10:23:21;38.80;27.90
32640;DHT22;19049;52.524;11.468;2022-07-25T10:26:07;38.90;27.30
32640;DHT22;19049;52.524;11.468;2022-07-25T10:31:32;38.80;27.40
32640;DHT22;19049;52.524;11.468;2022-07-25T10:34:27;38.80;27.60
32640;DHT22;19049;52.524;11.468;2022-07-25T10:37:08;38.90;26.80
32640;DHT22;19049;52.524;11.468;2022-07-25T10:40:04;39.10;27.80
32640;DHT22;19049;52.524;11.468;2022-07-25T10:42:33;39.20;28.10
32640;DHT22;19049;52.524;11.468;2022-07-25T10:45:16;39.30;27.50
32640;DHT22;19049;52.524;11.468;2022-07-25T10:47:53;39.30;27.10
32640;DHT22;19049;52.524;11.468;2022-07-25T10:50:21;39.30;27.30
32640;DHT22;19049;52.524;11.468;2022-07-25T10:52:59;39.30;27.00
32640;DHT22;19049;52.524;11.468;2022-07-25T10:56:07;39.20;27.30
32640;DHT22;19049;52.524;11.468;2022-07-25T10:58:51;39.10;27.40
32640;DHT22;19049;52.524;11.468;2022-07-25T11:01:22;39.10;27.10
32640;DHT22;19049;52.524;11.468;2022-07-25T11:06:52;39.20;27.20
32640;DHT22;19049;52.524;11.468;2022-07-25T11:12:17;39.30;27.00
32640;DHT22;19049;52.524;11.468;2022-07-25T11:15:05;39.40;27.60
32640;DHT22;19049;52.524;11.468;2022-07-25T11:17:36;39.50;27.40
32640;DHT22;19049;52.524;11.468;2022-07-25T11:20:06;39.50;27.10
32640;DHT22;19049;52.524;11.468;2022-07-25T11:22:38;39.60;26.70
32640;DHT22;19049;52.524;11.468;2022-07-25T11:25:20;39.70;26.60
32640;DHT22;19049;52.524;11.468;2022-07-25T11:28:03;39.90;26.80
32640;DHT22;19049;52.524;11.468;2022-07-25T11:30:42;39.90;26.80
32640;DHT22;19049;52.524;11.468;2022-07-25T11:33:15;40.10;26.60
32640;DHT22;19049;52.524;11.468;2022-07-25T11:35:43;40.10;26.20
32640;DHT22;19049;52.524;11.468;2022-07-25T11:38:29;40.20;26.20
32640;DHT22;19049;52.524;11.468;2022-07-25T11:41:13;40.20;25.90
32640;DHT22;19049;52.524;11.468;2022-07-25T11:44:12;40.10;26.10
32640;DHT22;19049;52.524;11.468;2022-07-25T12:03:22;39.30;27.00
32640;DHT22;19049;52.524;11.468;2022-07-25T12:05:51;39.30;27.00
32640;DHT22;19049;52.524;11.468;2022-07-25T12:08:21;39.40;26.90
32640;DHT22;19049;52.524;11.468;2022-07-25T12:10:50;39.30;26.50
32640;DHT22;19049;52.524;11.468;2022-07-25T12:13:22;39.20;26.60
32640;DHT22;19049;52.524;11.468;2022-07-25T12:16:01;39.10;26.90
32640;DHT22;19049;52.524;11.468;2022-07-25T12:18:27;39.00;26.80
32640;DHT22;19049;52.524;11.468;2022-07-25T12:21:05;38.90;27.20
32640;DHT22;19049;52.524;11.468;2022-07-25T12:23:35;38.80;26.90
32640;DHT22;19049;52.524;11.468;2022-07-25T12:26:10;38.80;26.80
32640;DHT22;19049;52.524;11.468;2022-07-25T12:28:41;38.70;26.80
32640;DHT22;19049;52.524;11.468;2022-07-25T12:31:20;38.70;26.90
32640;DHT22;19049;52.524;11.468;2022-07-25T12:37:14;38.60;26.40
32640;DHT22;19049;52.524;11.468;2022-07-25T12:39:39;38.50;26.50
32640;DHT22;19049;52.524;11.468;2022-07-25T12:42:05;38.40;26.90
32640;DHT22;19049;52.524;11.468;2022-07-25T12:44:33;38.30;27.00
32640;DHT22;19049;52.524;11.468;2022-07-25T12:46:59;38.20;27.30
32640;DHT22;19049;52.524;11.468;2022-07-25T12:49:38;38.20;27.00
32640;DHT22;19049;52.524;11.468;2022-07-25T12:52:06;38.20;27.20
32640;DHT22;19049;52.524;11.468;2022-07-25T12:54:35;38.30;27.60
32640;DHT22;19049;52.524;11.468;2022-07-25T12:57:05;38.30;27.40
32640;DHT22;19049;52.524;11.468;2022-07-25T12:59:31;38.50;27.90
32640;DHT22;19049;52.524;11.468;2022-07-25T13:01:59;38.80;27.50
32640;DHT22;19049;52.524;11.468;2022-07-25T13:04:29;39.20;26.80
32640;DHT22;19049;52.524;11.468;2022-07-25T13:06:58;39.40;26.40
32640;DHT22;19049;52.524;11.468;2022-07-25T13:09:26;39.60;26.40
32640;DHT22;19049;52.524;11.468;2022-07-25T13:12:02;39.60;26.00
32640;DHT22;19049;52.524;11.468;2022-07-25T13:14:55;39.60;25.80
32640;DHT22;19049;52.524;11.468;2022-07-25T13:17:43;39.50;25.80
32640;DHT22;19049;52.524;11.468;2022-07-25T13:20:11;39.30;26.00
32640;DHT22;19049;52.524;11.468;2022-07-25T13:22:54;39.10;26.00
32640;DHT22;19049;52.524;11.468;2022-07-25T13:29:05;38.50;26.50
32640;DHT22;19049;52.524;11.468;2022-07-25T13:32:04;38.40;26.80
32640;DHT22;19049;52.524;11.468;2022-07-25T13:34:30;38.20;26.90
32640;DHT22;19049;52.524;11.468;2022-07-25T13:36:58;38.00;27.20
32640;DHT22;19049;52.524;11.468;2022-07-25T13:39:24;37.90;27.50
32640;DHT22;19049;52.524;11.468;2022-07-25T13:50:56;38.10;27.50
32640;DHT22;19049;52.524;11.468;2022-07-25T13:59:49;38.60;26.90
32640;DHT22;19049;52.524;11.468;2022-07-25T14:02:20;38.80;26.40
32640;DHT22;19049;52.524;11.468;2022-07-25T14:04:48;39.10;26.50
32640;DHT22;19049;52.524;11.468;2022-07-25T14:07:14;39.20;26.30
32640;DHT22;19049;52.524;11.468;2022-07-25T14:09:42;39.50;25.90
32640;DHT22;19049;52.524;11.468;2022-07-25T14:12:10;39.60;25.60
32640;DHT22;19049;52.524;11.468;2022-07-25T14:14:36;39.60;25.20
32640;DHT22;19049;52.524;11.468;2022-07-25T14:17:02;39.60;25.20
32640;DHT22;19049;52.524;11.468;2022-07-25T14:19:27;39.30;24.30
32640;DHT22;19049;52.524;11.468;2022-07-25T14:21:53;39.10;24.60
32640;DHT22;19049;52.524;11.468;2022-07-25T14:24:18;38.80;24.80
32640;DHT22;19049;52.524;11.468;2022-07-25T14:26:44;38.50;25.10
32640;DHT22;19049;52.524;11.468;2022-07-25T14:29:10;38.10;25.20
32640;DHT22;19049;52.524;11.468;2022-07-25T14:31:38;37.80;25.40
32640;DHT22;19049;52.524;11.468;2022-07-25T14:34:03;37.50;25.60
32640;DHT22;19049;52.524;11.468;2022-07-25T14:36:29;37.30;26.40
32640;DHT22;19049;52.524;11.468;2022-07-25T14:38:54;37.00;26.00
32640;DHT22;19049;52.524;11.468;2022-07-25T14:41:20;36.80;26.20
32640;DHT22;19049;52.524;11.468;2022-07-25T14:43:46;36.60;26.60
32640;DHT22;19049;52.524;11.468;2022-07-25T14:46:14;36.40;26.70
32640;DHT22;19049;52.524;11.468;2022-07-25T14:48:40;36.20;26.90
32640;DHT22;19049;52.524;11.468;2022-07-25T14:51:08;36.10;27.10
32640;DHT22;19049;52.524;11.468;2022-07-25T14:53:34;35.90;27.20
32640;DHT22;19049;52.524;11.468;2022-07-25T14:56:04;35.80;27.40
32640;DHT22;19049;52.524;11.468;2022-07-25T14:58:30;35.60;27.70
32640;DHT22;19049;52.524;11.468;2022-07-25T15:00:58;35.50;27.90
32640;DHT22;19049;52.524;11.468;2022-07-25T15:03:24;35.30;28.30
32640;DHT22;19049;52.524;11.468;2022-07-25T15:05:52;35.10;28.80
32640;DHT22;19049;52.524;11.468;2022-07-25T15:08:17;34.90;28.90
32640;DHT22;19049;52.524;11.468;2022-07-25T15:10:43;34.50;29.60
32640;DHT22;19049;52.524;11.468;2022-07-25T15:13:11;34.20;30.40
32640;DHT22;19049;52.524;11.468;2022-07-25T15:15:47;33.90;32.20
32640;DHT22;19049;52.524;11.468;2022-07-25T15:18:12;33.40;32.40
32640;DHT22;19049;52.524;11.468;2022-07-25T15:20:41;33.00;32.60
32640;DHT22;19049;52.524;11.468;2022-07-25T15:23:17;32.70;33.70
32640;DHT22;19049;52.524;11.468;2022-07-25T15:25:42;32.40;34.50
32640;DHT22;19049;52.524;11.468;2022-07-25T15:28:15;32.30;35.30
32640;DHT22;19049;52.524;11.468;2022-07-25T15:30:45;32.10;35.40
32640;DHT22;19049;52.524;11.468;2022-07-25T15:33:14;32.10;35.40
32640;DHT22;19049;52.524;11.468;2022-07-25T15:35:47;32.10;35.10
32640;DHT22;19049;52.524;11.468;2022-07-25T15:38:16;32.10;35.20
32640;DHT22;19049;52.524;11.468;2022-07-25T15:41:04;32.10;35.20
32640;DHT22;19049;52.524;11.468;2022-07-25T15:43:38;32.10;34.90
32640;DHT22;19049;52.524;11.468;2022-07-25T15:46:10;32.10;35.50
32640;DHT22;19049;52.524;11.468;2022-07-25T15:48:41;32.20;34.90
32640;DHT22;19049;52.524;11.468;2022-07-25T15:51:07;32.20;35.10
32640;DHT22;19049;52.524;11.468;2022-07-25T15:53:32;32.30;35.00
32640;DHT22;19049;52.524;11.468;2022-07-25T15:56:00;32.40;34.80
32640;DHT22;19049;52.524;11.468;2022-07-25T15:58:28;32.40;35.20
32640;DHT22;19049;52.524;11.468;2022-07-25T16:00:54;32.50;35.40
32640;DHT22;19049;52.524;11.468;2022-07-25T16:03:20;32.70;35.30
32640;DHT22;19049;52.524;11.468;2022-07-25T16:05:45;32.80;35.30
32640;DHT22;19049;52.524;11.468;2022-07-25T16:08:11;33.10;35.60
32640;DHT22;19049;52.524;11.468;2022-07-25T16:10:39;33.50;35.10
32640;DHT22;19049;52.524;11.468;2022-07-25T16:13:05;34.00;34.70
32640;DHT22;19049;52.524;11.468;2022-07-25T16:15:32;34.50;34.30
32640;DHT22;19049;52.524;11.468;2022-07-25T16:17:58;34.90;33.80
32640;DHT22;19049;52.524;11.468;2022-07-25T16:20:24;35.40;32.90
32640;DHT22;19049;52.524;11.468;2022-07-25T16:22:50;35.80;32.00
32640;DHT22;19049;52.524;11.468;2022-07-25T16:25:22;36.20;31.70
32640;DHT22;19049;52.524;11.468;2022-07-25T16:27:50;36.50;31.50
32640;DHT22;19049;52.524;11.468;2022-07-25T16:30:17;36.70;30.50
32640;DHT22;19049;52.524;11.468;2022-07-25T16:32:42;36.90;30.20
32640;DHT22;19049;52.524;11.468;2022-07-25T16:35:08;37.10;29.90
32640;DHT22;19049;52.524;11.468;2022-07-25T16:37:34;37.10;30.00
32640;DHT22;19049;52.524;11.468;2022-07-25T16:39:59;37.20;30.00
32640;DHT22;19049;52.524;11.468;2022-07-25T16:42:25;37.30;29.60
32640;DHT22;19049;52.524;11.468;2022-07-25T16:44:50;37.30;29.00
32640;DHT22;19049;52.524;11.468;2022-07-25T16:47:16;37.20;29.20
32640;DHT22;19049;52.524;11.468;2022-07-25T16:49:42;37.20;29.20
32640;DHT22;19049;52.524;11.468;2022-07-25T16:52:07;37.20;29.30
32640;DHT22;19049;52.524;11.468;2022-07-25T16:54:36;37.10;29.20
32640;DHT22;19049;52.524;11.468;2022-07-25T16:57:01;36.90;29.30